Flight Track Log - Related Links

Times and Time Zones

All times are in EDT time to prevent confusion due to time zone crossing. See the PDT4309 flight status page for this flight to view local times or setup timezone preferences in your user account.

Time Position Orientation Groundspeed Altitude Reporting Facility
EDT Latitude Longitude Course Direction KTS MPH feet Rate Location/Type
Tue 06:28:00 PM 35.7167 -77.5333 270° West  Level FlightAware Approximate
Tue 06:28:51 PM 35.6464 -77.3556 281° West 249 287 3,200  Level Washington Center
Tue 06:29:00 PM 35.7288 -77.6153 287° West  Level FlightAware Approximate
Tue 06:29:49 PM 35.6861 -77.3667 347° North 204 235 4,100  Level Washington Center
Tue 06:30:00 PM 35.7333 -77.6989 270° West  Level FlightAware Approximate
Tue 06:30:49 PM 35.7106 -77.3981 314° West 155 178 5,200  Level Washington Center
Tue 06:31:00 PM 35.7492 -77.7802 287° West  Level FlightAware Approximate
Tue 06:31:50 PM 35.7056 -77.4517 263° West 122 140 6,000  Level Washington Center
Tue 06:32:00 PM 35.7568 -77.8640 276° West  Level FlightAware Approximate
Tue 06:32:50 PM 35.7153 -77.5006 284° West 140 161 6,900  Level Washington Center
Tue 06:33:00 PM 35.7637 -77.9479 276° West  Level FlightAware Approximate
Tue 06:33:50 PM 35.7250 -77.5494 284° West 145 167 7,800  Level Washington Center
Tue 06:34:00 PM 35.7753 -78.0227 281° West  Level FlightAware Approximate
Tue 06:34:51 PM 35.7322 -77.6031 279° West 151 174 8,700  Level Washington Center
Tue 06:35:51 PM 35.7419 -77.6547 283° West 151 174 9,400 661 Climbing Washington Center
Tue 06:36:49 PM 35.7514 -77.7061 283° West 156 180 10,000 305 Climbing Washington Center
Tue 06:37:49 PM 35.7567 -77.7678 276° West 168 193 10,000  Level Washington Center
Tue 06:38:49 PM 35.7614 -77.8394 275° West 191 220 10,000  Level Washington Center
Tue 06:39:50 PM 35.7686 -77.9086 277° West 205 236 10,000  Level Washington Center
Tue 06:40:39 PM 35.7717 -77.9653 274° West 205 236 10,000  Level Washington Center
Tue 06:41:51 PM 35.7886 -78.0503 284° West 210 242 10,000  Level Washington Center
Tue 06:42:52 PM 35.7933 -78.1219 275° West 210 242 10,000  Level Washington Center
Tue 06:43:49 PM 35.8044 -78.1914 281° West 215 247 10,000  Level Washington Center
Tue 06:44:04 PM 35.8019 -78.2094 260° West 210 242 10,000  Level Washington Center
Tue 06:44:51 PM 35.8111 -78.2661 281° West 220 253 10,000  Level Washington Center
Tue 06:45:10 PM 35.8106 -78.2917 268° West 211 243 10,000  Level Washington Center
Tue 06:45:49 PM 35.8200 -78.3356 285° West 220 253 10,000  Level Washington Center
Tue 06:46:17 PM 35.8172 -78.3686 264° West 213 245 10,000  Level Washington Center
Tue 06:46:50 PM 35.8289 -78.4075 290° West 220 253 10,000  Level Washington Center
Tue 06:47:14 PM 35.8283 -78.4306 268° West 207 238 10,000  Level Washington Center
Tue 06:47:51 PM 35.8356 -78.4719 282° West 220 253 10,000  Level Washington Center
Tue 06:48:21 PM 35.8367 -78.5128 272° West 208 239 10,000  Level Washington Center
Tue 06:48:51 PM 35.8444 -78.5414 289° West 220 253 10,000  Level Washington Center
Tue 06:49:15 PM 35.8456 -78.5797 272° West 208 239 10,000  Level Washington Center
Tue 06:49:49 PM 35.8489 -78.6106 278° West 220 253 10,000  Level Washington Center
Tue 06:50:16 PM 35.8542 -78.6492 280° West 206 237 10,000  Level Washington Center
Tue 06:51:16 PM 35.8669 -78.7164 283° West 204 235 10,000  Level Washington Center
Tue 06:52:17 PM 35.8717 -78.7808 275° West 208 239 10,000  Level Washington Center
Tue 06:53:19 PM 35.8608 -78.8650 261° West 216 249 10,000  Level Washington Center
Tue 06:54:26 PM 35.8567 -78.9417 266° West 207 238 10,000  Level Washington Center
Tue 06:55:26 PM 35.8525 -79.0183 266° West 209 241 10,000 -64 Level Washington Center
Tue 06:57:00 PM 35.8439 -79.1234 264° West  Level FlightAware Approximate
Tue 07:04:00 PM 35.8009 -79.5921 262° West  Level FlightAware Approximate
Tue 07:05:00 PM 35.8002 -79.6594 270° West  Level FlightAware Approximate
Tue 07:06:00 PM 35.8004 -79.7268 270° West  Level FlightAware Approximate
Tue 07:07:00 PM 35.8005 -79.7942 270° West  Level FlightAware Approximate
Tue 07:08:00 PM 35.8006 -79.8615 270° West  Level FlightAware Approximate
Tue 07:09:00 PM 35.8007 -79.9289 270° West  Level FlightAware Approximate
Tue 07:10:00 PM 35.8007 -79.9963 270° West  Level FlightAware Approximate
Tue 07:10:06 PM 35.7742 -80.1022 270° West 248 285 9,000  Level Atlanta Center
Tue 07:10:55 PM 35.7700 -80.1742 266° West 248 285 9,000  Level Atlanta Center
Tue 07:11:00 PM 35.8007 -80.0636 270° West  Level FlightAware Approximate
Tue 07:12:00 PM 35.8006 -80.1310 270° West  Level FlightAware Approximate
Tue 07:12:01 PM 35.7664 -80.2561 267° West 224 258 9,000  Level Atlanta Center
Tue 07:13:00 PM 35.8005 -80.1984 270° West  Level FlightAware Approximate
Tue 07:13:02 PM 35.7519 -80.3283 256° West 224 258 9,000  Level Atlanta Center
Tue 07:14:00 PM 35.8004 -80.2657 270° West  Level FlightAware Approximate
Tue 07:14:03 PM 35.7417 -80.4056 261° West 226 260 9,000  Level Atlanta Center
Tue 07:15:00 PM 35.8003 -80.3331 270° West  Level FlightAware Approximate
Tue 07:15:10 PM 35.7400 -80.4928 269° West 221 254 9,000  Level Atlanta Center
Tue 07:16:05 PM 35.6956 -80.5433 223° Southwest 245 282 9,000  Level Atlanta Center
Tue 07:17:06 PM 35.6361 -80.5817 208° Southwest 255 293 9,000  Level Atlanta Center
Tue 07:18:07 PM 35.5792 -80.6300 215° Southwest 249 287 9,000  Level Atlanta Center
Tue 07:19:01 PM 35.5283 -80.6781 218° Southwest 246 283 9,000  Level Atlanta Center
Tue 07:20:02 PM 35.4733 -80.7261 215° Southwest 241 277 9,000  Level Atlanta Center
Tue 07:21:03 PM 35.4139 -80.7719 212° Southwest 243 280 9,000  Level Atlanta Center
Tue 07:22:10 PM 35.3508 -80.8253 215° Southwest 248 285 9,000  Level Atlanta Center
Tue 07:23:11 PM 35.2911 -80.8556 202° Southwest 255 293 9,000 -98 Level Atlanta Center
Tue 07:24:12 PM 35.2178 -80.8508 177° South 265 305 8,800 -984 Descending Atlanta Center
Tue 07:25:19 PM 35.1339 -80.8361 172° South 256 295 6,900 -1,672 Descending Atlanta Center
Tue 07:26:14 PM 35.0711 -80.8233 171° South 244 281 5,400 -1,500 Descending Atlanta Center
Tue 07:27:15 PM 35.0367 -80.8628 223° Southwest 204 235 4,000 -1,240 Descending Atlanta Center
Tue 07:28:15 PM 35.0692 -80.9122 309° West 192 221 2,900 -1,100 Descending Atlanta Center

Login

Don't have an account? Register now (free) for customized features, flight alerts, and more!